createdAt,value
2022-11-15T00:01:43.678Z,4.99
2022-11-15T00:04:13.921Z,4.93
2022-11-15T00:06:43.330Z,4.88
2022-11-15T00:09:12.956Z,5.00
2022-11-15T00:11:44.968Z,5.01
2022-11-15T00:14:14.339Z,4.99
2022-11-15T00:16:43.740Z,4.97
2022-11-15T00:19:13.295Z,4.94
2022-11-15T00:21:42.652Z,4.93
2022-11-15T00:24:12.397Z,5.08
2022-11-15T00:26:41.801Z,5.23
2022-11-15T00:29:13.765Z,5.12
2022-11-15T00:31:43.230Z,4.99
2022-11-15T00:34:13.223Z,5.03
2022-11-15T00:36:42.717Z,4.99
2022-11-15T00:39:12.328Z,4.85
2022-11-15T00:41:41.952Z,5.20
2022-11-15T00:44:13.976Z,5.28
2022-11-15T00:46:43.344Z,5.25
2022-11-15T00:49:12.764Z,5.13
2022-11-15T00:51:42.167Z,5.11
2022-11-15T00:54:11.586Z,5.32
2022-11-15T00:56:40.957Z,5.10
2022-11-15T00:59:10.389Z,4.99
2022-11-15T01:01:42.426Z,5.33
2022-11-15T01:04:11.798Z,5.13
2022-11-15T01:06:41.271Z,5.18
2022-11-15T01:09:10.665Z,5.09
2022-11-15T01:11:40.056Z,5.14
2022-11-15T01:14:09.528Z,5.11
2022-11-15T01:16:38.918Z,5.12
2022-11-15T01:19:10.925Z,5.29
2022-11-15T01:21:40.313Z,5.54
2022-11-15T01:24:10.150Z,5.21
2022-11-15T01:26:39.516Z,5.24
2022-11-15T01:29:08.977Z,5.18
2022-11-15T01:31:39.068Z,5.00
2022-11-15T01:34:11.038Z,4.93
2022-11-15T01:36:40.608Z,5.19
2022-11-15T01:39:10.016Z,5.20
2022-11-15T01:41:39.746Z,5.27
2022-11-15T01:44:38.304Z,5.11
2022-11-15T01:47:12.886Z,4.89
2022-11-15T01:49:50.829Z,5.06
2022-11-15T01:52:23.073Z,5.19
2022-11-15T01:54:55.847Z,4.97
2022-11-15T01:57:25.299Z,4.71
2022-11-15T01:59:54.761Z,4.61
2022-11-15T02:02:24.276Z,4.50
2022-11-15T02:04:56.425Z,4.67
2022-11-15T02:07:26.076Z,4.67
2022-11-15T02:09:56.516Z,4.70
2022-11-15T02:12:26.355Z,4.75
2022-11-15T02:14:57.320Z,4.61
2022-11-15T02:17:36.619Z,4.45
2022-11-15T02:20:38.940Z,4.60
2022-11-15T02:23:38.207Z,4.42
2022-11-15T02:26:28.426Z,4.52
2022-11-15T02:29:03.271Z,4.49
2022-11-15T02:31:40.274Z,4.36
2022-11-15T02:34:13.112Z,4.35
2022-11-15T02:36:47.644Z,4.31
2022-11-15T02:39:24.970Z,4.40
2022-11-15T02:41:58.218Z,4.37
2022-11-15T02:44:28.022Z,4.54
2022-11-15T02:47:14.989Z,4.50
2022-11-15T02:49:47.008Z,4.31
2022-11-15T02:52:18.735Z,4.26
2022-11-15T02:54:57.160Z,4.10
2022-11-15T02:57:36.115Z,4.15
2022-11-15T03:00:09.525Z,4.19
2022-11-15T03:03:01.354Z,4.15
2022-11-15T03:05:37.505Z,3.99
2022-11-15T03:08:12.136Z,4.08
2022-11-15T03:10:48.555Z,4.08
2022-11-15T03:13:26.450Z,4.15
2022-11-15T03:16:01.582Z,4.38
2022-11-15T03:18:36.751Z,4.16
2022-11-15T03:21:09.687Z,4.12
2022-11-15T03:23:40.587Z,4.09
2022-11-15T03:26:12.955Z,4.15
2022-11-15T03:28:44.493Z,4.13
2022-11-15T03:31:31.047Z,4.23
2022-11-15T03:34:03.601Z,4.00
2022-11-15T03:36:34.522Z,4.04
2022-11-15T03:39:06.659Z,3.94
2022-11-15T03:41:39.854Z,3.94
2022-11-15T03:44:15.842Z,4.05
2022-11-15T03:46:50.289Z,4.02
2022-11-15T03:49:26.931Z,4.05
2022-11-15T03:51:56.395Z,4.07
2022-11-15T03:54:25.955Z,4.12
2022-11-15T03:56:55.382Z,4.10
2022-11-15T03:59:25.110Z,4.24
2022-11-15T04:01:54.625Z,4.18
2022-11-15T04:04:26.741Z,4.19
2022-11-15T04:06:56.238Z,4.01
2022-11-15T04:09:25.667Z,4.17
2022-11-15T04:11:55.132Z,4.60
2022-11-15T04:14:24.523Z,4.45
2022-11-15T04:16:53.895Z,4.65
2022-11-15T04:19:38.422Z,5.10
2022-11-15T04:22:20.251Z,4.97
2022-11-15T04:24:49.651Z,5.04
2022-11-15T04:27:19.022Z,5.14
2022-11-15T04:29:48.392Z,5.07
2022-11-15T04:32:17.857Z,4.64
2022-11-15T04:34:49.797Z,4.43
2022-11-15T04:37:19.230Z,4.40
2022-11-15T04:39:48.626Z,4.56
2022-11-15T04:42:18.013Z,4.31
2022-11-15T04:44:47.423Z,4.22
2022-11-15T04:47:16.843Z,4.45
2022-11-15T04:49:48.800Z,4.52
2022-11-15T04:52:18.207Z,4.37
2022-11-15T04:54:47.609Z,4.39
2022-11-15T04:57:17.941Z,4.52
2022-11-15T04:59:47.693Z,4.75
2022-11-15T05:02:17.132Z,4.80
2022-11-15T05:04:46.530Z,4.78
2022-11-15T05:07:16.007Z,5.09
2022-11-15T05:09:45.427Z,5.05
2022-11-15T05:12:14.848Z,5.07
2022-11-15T05:14:44.255Z,5.05
2022-11-15T05:17:13.621Z,4.85
2022-11-15T05:19:43.115Z,4.85
2022-11-15T05:22:15.386Z,4.92
2022-11-15T05:24:44.844Z,4.84
2022-11-15T05:27:14.272Z,5.07
2022-11-15T05:29:43.711Z,4.96
2022-11-15T05:32:13.613Z,4.78
2022-11-15T05:34:43.057Z,5.09
2022-11-15T05:37:15.086Z,5.05
2022-11-15T05:39:44.463Z,4.96
2022-11-15T05:42:16.002Z,4.88
2022-11-15T05:44:47.792Z,4.90
2022-11-15T05:47:20.479Z,4.91
2022-11-15T05:49:51.923Z,4.94
2022-11-15T05:52:26.167Z,4.87
2022-11-15T05:54:56.466Z,5.01
2022-11-15T05:57:25.919Z,5.06
2022-11-15T05:59:55.697Z,5.19
2022-11-15T06:02:25.159Z,4.95
2022-11-15T06:04:54.649Z,4.94
2022-11-15T06:07:26.742Z,5.03
2022-11-15T06:09:56.201Z,5.04
2022-11-15T06:12:25.851Z,5.01
2022-11-15T06:14:55.299Z,5.10
2022-11-15T06:17:24.700Z,5.17
2022-11-15T06:19:54.153Z,5.11
2022-11-15T06:22:29.308Z,4.99
2022-11-15T06:25:04.060Z,5.36
2022-11-15T06:27:34.978Z,5.31
2022-11-15T06:30:04.396Z,5.35
2022-11-15T06:32:34.190Z,5.47
2022-11-15T06:35:03.648Z,5.33
2022-11-15T06:37:37.263Z,5.39
2022-11-15T06:40:07.384Z,5.46
2022-11-15T06:42:36.776Z,5.48
2022-11-15T06:45:07.008Z,5.47
2022-11-15T06:47:36.458Z,5.34
2022-11-15T06:50:05.969Z,5.39
2022-11-15T06:52:38.735Z,5.37
2022-11-15T06:55:09.494Z,5.59
2022-11-15T06:57:39.627Z,5.65
2022-11-15T07:00:10.812Z,5.73
2022-11-15T07:02:40.180Z,5.71
2022-11-15T07:05:10.729Z,5.58
2022-11-15T07:07:42.871Z,5.50
2022-11-15T07:10:13.147Z,5.52
2022-11-15T07:12:42.582Z,5.55
2022-11-15T07:15:13.317Z,5.67
2022-11-15T07:17:42.738Z,5.84
2022-11-15T07:20:12.798Z,5.77
2022-11-15T07:22:46.180Z,6.00
2022-11-15T07:25:15.659Z,6.08
2022-11-15T07:27:45.254Z,6.13
2022-11-15T07:30:16.296Z,6.03
2022-11-15T07:32:45.892Z,6.02
2022-11-15T07:35:15.393Z,5.93
2022-11-15T07:37:47.349Z,5.88
2022-11-15T07:40:16.897Z,5.89
2022-11-15T07:42:58.189Z,6.05
2022-11-15T07:45:29.450Z,5.98
2022-11-15T07:47:59.486Z,5.98
2022-11-15T07:50:30.122Z,6.07
2022-11-15T07:53:03.375Z,6.14
2022-11-15T07:55:32.932Z,6.08
2022-11-15T07:58:06.148Z,6.07
2022-11-15T08:00:36.203Z,6.15
2022-11-15T08:03:06.881Z,6.09
2022-11-15T08:05:36.740Z,6.19
2022-11-15T08:08:09.328Z,6.21
2022-11-15T08:10:40.883Z,6.18
2022-11-15T08:13:12.204Z,6.33
2022-11-15T08:15:41.829Z,6.32
2022-11-15T08:18:18.047Z,6.28
2022-11-15T08:20:47.609Z,6.23
2022-11-15T08:23:19.783Z,6.47
2022-11-15T08:25:49.524Z,6.53
2022-11-15T08:28:20.317Z,6.51
2022-11-15T08:30:49.809Z,6.68
2022-11-15T08:33:19.372Z,6.57
2022-11-15T08:35:48.999Z,6.51
2022-11-15T08:38:20.959Z,6.42
2022-11-15T08:40:50.570Z,6.42
2022-11-15T08:43:20.073Z,6.50
2022-11-15T08:45:49.591Z,6.49
2022-11-15T08:48:19.106Z,6.47
2022-11-15T08:50:48.619Z,6.51
2022-11-15T08:53:21.195Z,6.45
2022-11-15T08:55:50.844Z,7.82
2022-11-15T08:58:20.349Z,7.68
2022-11-15T09:00:49.849Z,8.01
2022-11-15T09:03:19.326Z,7.70
2022-11-15T09:05:48.840Z,7.32
2022-11-15T09:08:48.219Z,7.07
2022-11-15T09:11:11.728Z,7.10
2022-11-15T09:13:41.227Z,7.24
2022-11-15T09:16:13.072Z,7.24
2022-11-15T09:18:42.548Z,7.13
2022-11-15T09:21:12.543Z,7.02
2022-11-15T09:23:44.583Z,7.04
2022-11-15T09:26:14.132Z,7.03
2022-11-15T09:28:43.988Z,7.10
2022-11-15T09:31:16.832Z,7.12
2022-11-15T09:33:50.555Z,7.19
2022-11-15T09:36:20.539Z,7.07
2022-11-15T09:38:52.533Z,7.10
2022-11-15T09:41:33.133Z,7.24
2022-11-15T09:44:12.654Z,7.36
2022-11-15T09:46:50.393Z,7.26
2022-11-15T09:49:20.177Z,7.18
2022-11-15T09:51:52.811Z,7.13
2022-11-15T09:57:24.375Z,7.15
2022-11-15T10:00:44.630Z,7.36
2022-11-15T10:03:02.860Z,7.47
2022-11-15T10:05:32.703Z,7.52
2022-11-15T10:08:07.387Z,7.50
2022-11-15T10:10:42.423Z,7.57
2022-11-15T10:13:17.044Z,7.64
2022-11-15T10:15:49.388Z,7.78
2022-11-15T10:18:20.570Z,7.89
2022-11-15T10:20:55.893Z,7.79
2022-11-15T10:23:26.993Z,7.91
2022-11-15T10:26:06.448Z,7.88
2022-11-15T10:28:36.710Z,7.98
2022-11-15T10:31:06.437Z,7.93
2022-11-15T10:33:37.374Z,7.90
2022-11-15T10:36:24.845Z,8.04
2022-11-15T10:39:00.190Z,8.15
2022-11-15T10:41:41.195Z,8.20
2022-11-15T10:44:29.747Z,8.15
2022-11-15T10:47:25.056Z,8.16
2022-11-15T10:50:29.260Z,8.10
2022-11-15T10:52:58.877Z,8.11
2022-11-15T10:55:30.982Z,8.06
2022-11-15T10:58:06.055Z,8.11
2022-11-15T11:00:40.258Z,8.13
2022-11-15T11:03:23.956Z,8.20
2022-11-15T11:06:07.120Z,8.27
2022-11-15T11:08:36.650Z,8.31
2022-11-15T11:11:08.122Z,8.32
2022-11-15T11:13:41.389Z,8.36
2022-11-15T11:16:25.687Z,8.40
2022-11-15T11:19:08.344Z,8.46
2022-11-15T11:21:50.663Z,8.49
2022-11-15T11:24:26.514Z,8.55
2022-11-15T11:27:07.197Z,8.60
2022-11-15T11:29:48.886Z,8.67
2022-11-15T11:32:31.949Z,8.71
2022-11-15T11:35:09.502Z,8.73
2022-11-15T11:37:44.095Z,8.73
2022-11-15T11:40:32.810Z,8.78
2022-11-15T11:43:08.389Z,8.87
2022-11-15T11:45:52.965Z,8.92
2022-11-15T11:48:42.783Z,9.04
2022-11-15T11:51:17.171Z,9.05
2022-11-15T11:53:51.653Z,9.08
2022-11-15T11:56:27.124Z,9.09
2022-11-15T11:58:58.456Z,9.10
2022-11-15T12:01:37.564Z,9.09
2022-11-15T12:04:14.006Z,9.10
2022-11-15T12:06:49.310Z,9.12
2022-11-15T12:09:25.331Z,9.12
2022-11-15T12:11:59.904Z,9.21
2022-11-15T12:14:35.126Z,9.22
2022-11-15T12:17:07.291Z,9.24
2022-11-15T12:19:36.873Z,9.27
2022-11-15T12:22:10.768Z,9.81
2022-11-15T12:24:43.404Z,10.07
2022-11-15T12:27:25.142Z,10.01
2022-11-15T12:29:58.519Z,10.05
2022-11-15T12:32:33.841Z,9.97
2022-11-15T12:35:04.810Z,9.96
2022-11-15T12:37:56.249Z,10.00
2022-11-15T12:40:37.363Z,10.01
2022-11-15T12:43:23.240Z,10.17
2022-11-15T12:45:52.724Z,10.21
2022-11-15T12:49:00.889Z,10.08
2022-11-15T12:52:06.609Z,10.23
2022-11-15T12:54:57.670Z,10.22
2022-11-15T12:57:40.374Z,10.32
2022-11-15T13:00:42.727Z,10.48
2022-11-15T13:03:24.395Z,10.59
2022-11-15T13:06:03.807Z,10.51
2022-11-15T13:08:59.953Z,10.43
2022-11-15T13:11:53.985Z,10.66
2022-11-15T13:14:43.218Z,10.72
2022-11-15T13:17:30.683Z,10.82
2022-11-15T13:20:22.364Z,10.77
2022-11-15T13:23:00.520Z,10.74
2022-11-15T13:25:51.139Z,10.93
2022-11-15T13:28:32.664Z,10.89
2022-11-15T13:31:03.888Z,11.00
2022-11-15T13:33:36.556Z,10.96
2022-11-15T13:36:09.476Z,11.14
2022-11-15T13:38:41.240Z,11.32
2022-11-15T13:41:22.544Z,11.28
2022-11-15T13:43:55.390Z,11.14
2022-11-15T13:46:26.132Z,11.16
2022-11-15T13:48:58.576Z,11.26
2022-11-15T13:51:34.080Z,11.37
2022-11-15T13:54:07.045Z,11.37
2022-11-15T13:56:37.165Z,11.51
2022-11-15T13:59:19.300Z,11.46
2022-11-15T14:01:48.751Z,11.47
2022-11-15T14:04:22.667Z,11.81
2022-11-15T14:06:54.597Z,11.70
2022-11-15T14:09:34.737Z,11.34
2022-11-15T14:12:06.204Z,11.26
2022-11-15T14:14:48.452Z,11.28
2022-11-15T14:17:24.609Z,11.15
2022-11-15T14:19:54.994Z,11.09
2022-11-15T14:22:27.019Z,10.99
2022-11-15T14:25:18.851Z,10.93
2022-11-15T14:28:08.907Z,10.85
2022-11-15T14:30:42.053Z,10.79
2022-11-15T14:33:23.254Z,10.71
2022-11-15T14:35:53.099Z,10.72
2022-11-15T14:38:22.688Z,10.63
2022-11-15T14:40:52.674Z,10.77
2022-11-15T14:43:22.170Z,10.82
2022-11-15T14:45:54.173Z,10.73
2022-11-15T14:48:23.604Z,10.67
2022-11-15T14:50:53.104Z,10.71
2022-11-15T14:53:23.147Z,10.54
2022-11-15T14:55:52.897Z,10.48
2022-11-15T14:58:22.367Z,10.44
2022-11-15T15:00:54.491Z,10.33
2022-11-15T15:03:23.899Z,10.35
2022-11-15T15:05:53.289Z,10.21
2022-11-15T15:08:22.755Z,10.19
2022-11-15T15:10:52.289Z,10.19
2022-11-15T15:13:23.055Z,10.12
2022-11-15T15:15:55.615Z,10.10
2022-11-15T15:18:25.052Z,10.13
2022-11-15T15:20:58.890Z,9.99
2022-11-15T15:23:31.757Z,9.91
2022-11-15T15:26:02.605Z,9.85
2022-11-15T15:28:34.922Z,9.82
2022-11-15T15:31:07.994Z,9.76
2022-11-15T15:33:37.542Z,9.63
2022-11-15T15:36:07.507Z,9.58
2022-11-15T15:38:37.041Z,9.55
2022-11-15T15:41:06.480Z,9.64
2022-11-15T15:43:35.971Z,9.55
2022-11-15T15:46:08.634Z,9.43
2022-11-15T15:48:39.216Z,9.44
2022-11-15T15:51:15.396Z,9.89
2022-11-15T15:53:48.211Z,10.03
2022-11-15T15:56:17.775Z,9.73
2022-11-15T15:58:47.289Z,9.46
2022-11-15T16:01:19.437Z,9.39
2022-11-15T16:03:48.977Z,9.31
2022-11-15T16:06:39.195Z,9.23
2022-11-15T16:09:15.593Z,9.10
2022-11-15T16:11:46.015Z,9.10
2022-11-15T16:14:15.686Z,9.21
2022-11-15T16:16:47.679Z,9.13
2022-11-15T16:19:17.116Z,9.03
2022-11-15T16:21:46.615Z,9.17
2022-11-15T16:24:16.089Z,9.13
2022-11-15T16:26:45.506Z,9.00
2022-11-15T16:29:15.134Z,8.86
2022-11-15T16:31:47.206Z,8.83
2022-11-15T16:34:16.703Z,8.83
2022-11-15T16:36:46.130Z,8.82
2022-11-15T16:39:19.444Z,8.80
2022-11-15T16:41:49.179Z,8.78
2022-11-15T16:44:18.726Z,8.80
2022-11-15T16:46:52.130Z,8.80
2022-11-15T16:49:23.225Z,8.82
2022-11-15T16:51:53.534Z,8.82
2022-11-15T16:54:23.019Z,8.82
2022-11-15T16:56:52.481Z,8.82
2022-11-15T16:59:22.093Z,8.85
2022-11-15T17:01:54.235Z,8.83
2022-11-15T17:04:23.649Z,8.82
2022-11-15T17:06:53.217Z,8.86
2022-11-15T17:09:24.882Z,8.84
2022-11-15T17:11:55.276Z,8.81
2022-11-15T17:14:24.797Z,8.80
2022-11-15T17:16:56.848Z,8.76
2022-11-15T17:19:26.370Z,8.75
2022-11-15T17:21:56.092Z,8.75
2022-11-15T17:24:25.533Z,8.73
2022-11-15T17:26:55.022Z,8.89
2022-11-15T17:29:24.475Z,9.17
2022-11-15T17:31:56.460Z,9.40
2022-11-15T17:34:25.923Z,9.23
2022-11-15T17:36:55.448Z,9.05
2022-11-15T17:39:25.206Z,9.02
2022-11-15T17:41:54.683Z,8.88
2022-11-15T17:44:25.194Z,8.81
2022-11-15T17:46:57.294Z,8.77
2022-11-15T17:49:26.844Z,8.76
2022-11-15T17:51:56.361Z,8.76
2022-11-15T17:54:25.877Z,8.71
2022-11-15T17:56:55.383Z,8.68
2022-11-15T17:59:24.891Z,8.66
2022-11-15T18:01:56.952Z,8.66
2022-11-15T18:04:28.833Z,8.69
2022-11-15T18:06:58.507Z,8.72
2022-11-15T18:09:28.052Z,8.75
2022-11-15T18:11:58.660Z,8.74
2022-11-15T18:14:28.855Z,8.73
2022-11-15T18:17:00.977Z,8.74
2022-11-15T18:19:30.433Z,8.78
2022-11-15T18:22:00.952Z,8.78
2022-11-15T18:24:34.757Z,8.81
2022-11-15T18:27:06.369Z,8.80
2022-11-15T18:29:37.917Z,8.81
2022-11-15T18:32:12.392Z,8.82
2022-11-15T18:34:42.015Z,8.81
2022-11-15T18:37:11.681Z,8.84
2022-11-15T18:39:41.169Z,8.85
2022-11-15T18:42:10.679Z,8.86
2022-11-15T18:44:40.182Z,8.89
2022-11-15T18:47:12.308Z,8.85
2022-11-15T18:49:41.699Z,8.83
2022-11-15T18:52:11.186Z,8.86
2022-11-15T18:54:40.620Z,8.85
2022-11-15T18:57:10.002Z,8.84
2022-11-15T18:59:39.545Z,8.87
2022-11-15T19:02:12.157Z,8.92
2022-11-15T19:04:41.691Z,8.93
2022-11-15T19:07:11.144Z,8.91
2022-11-15T19:09:40.690Z,8.88
2022-11-15T19:12:10.587Z,8.89
2022-11-15T19:14:40.092Z,8.90
2022-11-15T19:17:12.170Z,8.94
2022-11-15T19:19:41.605Z,8.94
2022-11-15T19:22:11.006Z,8.94
2022-11-15T19:24:40.498Z,8.97
2022-11-15T19:27:10.043Z,8.97
2022-11-15T19:29:40.611Z,8.99
2022-11-15T19:32:12.656Z,9.02
2022-11-15T19:34:42.128Z,9.01
2022-11-15T19:37:11.622Z,8.99
2022-11-15T19:39:41.535Z,9.01
2022-11-15T19:42:11.107Z,9.03
2022-11-15T19:44:40.608Z,9.15
2022-11-15T19:47:12.656Z,9.58
2022-11-15T19:49:43.446Z,10.09
2022-11-15T19:52:13.040Z,9.82
2022-11-15T19:54:42.811Z,9.79
2022-11-15T19:57:12.294Z,9.79
2022-11-15T19:59:41.803Z,9.83
2022-11-15T20:02:14.640Z,9.98
2022-11-15T20:04:44.125Z,9.95
2022-11-15T20:07:13.688Z,9.93
2022-11-15T20:09:43.611Z,9.92
2022-11-15T20:12:15.473Z,9.95
2022-11-15T20:14:46.008Z,9.92
2022-11-15T20:17:18.169Z,9.82
2022-11-15T20:19:47.598Z,9.94
2022-11-15T20:22:17.522Z,10.16
2022-11-15T20:24:47.022Z,9.70
2022-11-15T20:27:16.558Z,9.62
2022-11-15T20:29:46.564Z,9.56
2022-11-15T20:32:18.702Z,9.49
2022-11-15T20:34:53.833Z,9.46
2022-11-15T20:37:23.596Z,9.41
2022-11-15T20:39:53.039Z,9.34
2022-11-15T20:42:22.480Z,9.32
2022-11-15T20:44:51.965Z,9.40
2022-11-15T20:47:29.047Z,9.34
2022-11-15T20:50:14.879Z,9.30
2022-11-15T20:52:49.810Z,9.41
2022-11-15T20:55:19.461Z,9.33
2022-11-15T20:57:48.889Z,9.25
2022-11-15T21:00:22.353Z,9.20
2022-11-15T21:02:54.846Z,9.18
2022-11-15T21:05:24.409Z,9.15
2022-11-15T21:07:53.903Z,9.15
2022-11-15T21:10:35.866Z,9.13
2022-11-15T21:13:05.387Z,9.11
2022-11-15T21:15:36.251Z,9.10
2022-11-15T21:18:08.636Z,9.11
2022-11-15T21:20:38.145Z,9.09
2022-11-15T21:23:07.576Z,9.08
2022-11-15T21:25:37.559Z,9.03
2022-11-15T21:28:07.165Z,9.04
2022-11-15T21:30:36.648Z,9.05
2022-11-15T21:33:08.778Z,9.04
2022-11-15T21:35:38.256Z,9.03
2022-11-15T21:38:07.693Z,9.01
2022-11-15T21:40:37.120Z,9.03
2022-11-15T21:43:06.601Z,8.98
2022-11-15T21:45:36.046Z,8.95
2022-11-15T21:48:09.068Z,8.94
2022-11-15T21:50:38.540Z,8.95
2022-11-15T21:53:08.001Z,8.91
2022-11-15T21:55:37.483Z,8.91
2022-11-15T21:58:06.935Z,8.90
2022-11-15T22:00:48.993Z,8.89
2022-11-15T22:03:21.174Z,8.89
2022-11-15T22:05:50.628Z,8.86
2022-11-15T22:08:20.294Z,8.86
2022-11-15T22:10:50.666Z,8.84
2022-11-15T22:13:20.489Z,8.84
2022-11-15T22:15:51.402Z,8.80
2022-11-15T22:18:26.641Z,8.76
2022-11-15T22:20:58.212Z,8.80
2022-11-15T22:23:29.356Z,8.78
2022-11-15T22:25:59.109Z,8.75
2022-11-15T22:28:29.703Z,8.72
2022-11-15T22:31:00.254Z,8.67
2022-11-15T22:33:34.496Z,8.67
2022-11-15T22:36:05.281Z,8.62
2022-11-15T22:38:35.293Z,8.58
2022-11-15T22:41:05.273Z,8.53
2022-11-15T22:43:34.988Z,8.54
2022-11-15T22:46:06.952Z,8.49
2022-11-15T22:48:40.627Z,8.45
2022-11-15T22:51:10.739Z,8.40
2022-11-15T22:53:40.363Z,8.35
2022-11-15T22:56:10.685Z,8.32
2022-11-15T22:58:40.303Z,8.30
2022-11-15T23:01:09.943Z,8.20
2022-11-15T23:03:42.313Z,8.13
2022-11-15T23:06:12.063Z,8.05
2022-11-15T23:08:42.333Z,8.01
2022-11-15T23:11:29.001Z,7.97
2022-11-15T23:13:59.201Z,7.92
2022-11-15T23:16:34.600Z,7.87
2022-11-15T23:19:08.910Z,7.86
2022-11-15T23:21:52.150Z,7.83
2022-11-15T23:24:22.151Z,7.77
2022-11-15T23:26:53.127Z,7.73
2022-11-15T23:29:25.074Z,7.67
2022-11-15T23:32:07.946Z,7.66
2022-11-15T23:34:43.253Z,7.61
2022-11-15T23:37:15.045Z,7.60
2022-11-15T23:39:44.643Z,7.53
2022-11-15T23:42:20.140Z,7.53
2022-11-15T23:44:50.820Z,7.54
2022-11-15T23:47:20.777Z,7.53
2022-11-15T23:49:53.211Z,7.45
2022-11-15T23:52:23.185Z,7.41
2022-11-15T23:54:52.870Z,7.36
2022-11-15T23:57:23.240Z,7.35
2022-11-15T23:59:52.897Z,7.32
